Time;durP1;ratioP1;P1;durP2;ratioP2;P2;SDS_P1;SDS_P2;PMS_P1;PMS_P2;Temp;Humidity;BMP_temperature;BMP_pressure;BME280_temperature;BME280_humidity;BME280_pressure;Samples;Min_cycle;Max_cycle;Signal;HPM_P1;HPM_P2
2023/07/13 00:01:32;;;;;;;6.50;4.07;;;22.40;99.90;;;;;;5051050;28;20143;-68
2023/07/13 00:03:58;;;;;;;5.53;3.28;;;22.70;99.90;;;;;;5032280;28;20037;-68
2023/07/13 00:06:24;;;;;;;5.07;3.25;;;22.70;99.90;;;;;;5029069;28;20148;-68
2023/07/13 00:08:49;;;;;;;4.43;3.20;;;22.70;99.90;;;;;;5027441;28;20104;-68
2023/07/13 00:11:17;;;;;;;6.15;4.10;;;22.80;99.90;;;;;;5032427;28;20125;-68
2023/07/13 00:13:43;;;;;;;4.25;3.38;;;22.80;99.90;;;;;;5029707;28;20055;-68
2023/07/13 00:16:10;;;;;;;5.85;3.17;;;22.60;99.90;;;;;;5032832;28;20064;-68
2023/07/13 00:18:37;;;;;;;8.50;3.22;;;22.70;99.90;;;;;;5031053;28;20017;-67
2023/07/13 00:21:06;;;;;;;7.05;3.80;;;22.70;1.00;;;;;;5029430;28;20030;-68
2023/07/13 00:23:37;;;;;;;7.50;3.60;;;22.90;1.00;;;;;;5031201;28;20041;-68
2023/07/13 00:26:04;;;;;;;5.47;3.55;;;22.90;1.00;;;;;;5031676;28;20108;-68
2023/07/13 00:28:30;;;;;;;5.68;3.45;;;23.10;1.00;;;;;;5031764;28;20448;-68
2023/07/13 00:30:55;;;;;;;4.03;3.00;;;23.30;1.00;;;;;;5024837;28;20117;-68
2023/07/13 00:33:22;;;;;;;6.20;3.60;;;23.50;1.00;;;;;;5031630;28;20029;-68
2023/07/13 00:35:49;;;;;;;4.90;3.03;;;23.40;1.00;;;;;;5032212;28;20033;-67
2023/07/13 00:38:15;;;;;;;6.32;3.28;;;23.30;1.00;;;;;;5026827;28;20029;-68
2023/07/13 00:40:41;;;;;;;4.85;3.42;;;23.30;1.00;;;;;;5031518;28;20116;-67
2023/07/13 00:43:16;;;;;;;5.05;3.08;;;23.30;1.00;;;;;;5031351;28;20098;-67
2023/07/13 00:45:45;;;;;;;7.95;3.75;;;23.20;1.00;;;;;;5031094;28;20033;-67
2023/07/13 00:48:14;;;;;;;4.93;3.20;;;23.20;1.00;;;;;;5030449;28;20029;-67
2023/07/13 00:50:41;;;;;;;4.88;3.25;;;23.30;1.00;;;;;;5030788;28;20556;-67
2023/07/13 00:53:08;;;;;;;6.97;3.40;;;23.40;1.00;;;;;;5029153;28;20079;-67
2023/07/13 00:55:34;;;;;;;4.90;3.20;;;23.40;1.00;;;;;;5030640;28;20032;-67
2023/07/13 00:58:02;;;;;;;6.22;3.58;;;23.20;1.00;;;;;;5032013;28;20507;-67
2023/07/13 01:00:29;;;;;;;4.15;3.10;;;23.40;1.00;;;;;;5032062;28;20025;-67
2023/07/13 01:02:56;;;;;;;6.53;3.38;;;23.40;1.00;;;;;;5028980;28;20033;-67
2023/07/13 01:05:22;;;;;;;4.10;3.38;;;23.40;1.00;;;;;;5031270;28;20044;-67
2023/07/13 01:07:50;;;;;;;3.20;2.90;;;23.30;1.00;;;;;;5025870;28;20026;-67
2023/07/13 01:10:17;;;;;;;5.35;4.30;;;23.50;1.00;;;;;;5030935;28;20099;-67
2023/07/13 01:12:43;;;;;;;5.03;3.35;;;23.50;1.00;;;;;;5031362;28;20032;-67
2023/07/13 01:15:37;;;;;;;4.05;3.38;;;23.30;1.00;;;;;;5025373;28;20112;-67
2023/07/13 01:18:10;;;;;;;;;;;23.50;1.00;;;;;;5027788;28;20495;-67
2023/07/13 01:20:37;;;;;;;5.70;3.53;;;23.50;1.00;;;;;;5026418;28;19909;-66
2023/07/13 01:23:08;;;;;;;3.53;3.22;;;23.50;1.00;;;;;;5030988;28;20021;-66
2023/07/13 01:25:35;;;;;;;4.38;3.45;;;23.40;1.00;;;;;;5028691;28;20441;-66
2023/07/13 01:28:06;;;;;;;4.32;3.92;;;23.40;1.00;;;;;;5025559;28;20075;-66
2023/07/13 01:30:32;;;;;;;4.25;2.85;;;23.40;1.00;;;;;;5032613;28;20126;-66
2023/07/13 01:32:58;;;;;;;7.25;4.15;;;23.60;1.00;;;;;;5033634;28;20486;-66
2023/07/13 01:35:26;;;;;;;5.95;3.90;;;23.50;1.00;;;;;;5031190;28;20029;-66
2023/07/13 01:37:52;;;;;;;6.10;4.13;;;23.70;1.00;;;;;;5027318;28;20018;-65
2023/07/13 01:40:18;;;;;;;7.07;4.78;;;23.70;1.00;;;;;;5031680;28;20026;-66
2023/07/13 01:42:44;;;;;;;6.05;4.32;;;23.70;1.00;;;;;;5034315;28;20156;-66
2023/07/13 01:45:10;;;;;;;5.40;4.63;;;23.90;1.00;;;;;;5035586;28;20558;-66
2023/07/13 01:47:35;;;;;;;5.95;3.85;;;23.80;1.00;;;;;;5031888;28;20029;-66
2023/07/13 01:50:01;;;;;;;7.65;4.97;;;23.80;1.00;;;;;;5034687;28;20037;-66
2023/07/13 01:52:26;;;;;;;7.05;4.50;;;23.90;1.00;;;;;;5034908;28;20030;-65
2023/07/13 01:54:52;;;;;;;5.47;4.53;;;23.70;1.00;;;;;;5029868;28;20029;-66
2023/07/13 01:57:18;;;;;;;5.55;4.50;;;23.80;1.00;;;;;;5024842;28;20048;-66
2023/07/13 01:59:43;;;;;;;6.72;4.90;;;23.70;1.00;;;;;;5034188;28;20048;-66
2023/07/13 02:02:09;;;;;;;6.10;4.50;;;23.60;1.00;;;;;;5033528;28;20101;-66
2023/07/13 02:04:36;;;;;;;7.10;4.75;;;23.60;1.00;;;;;;5032763;28;20046;-66
2023/07/13 02:07:01;;;;;;;6.60;4.80;;;23.50;1.00;;;;;;5031152;28;20021;-66
2023/07/13 02:09:27;;;;;;;6.68;4.80;;;23.60;1.00;;;;;;5035070;28;20063;-66
2023/07/13 02:11:53;;;;;;;7.13;5.18;;;23.50;1.00;;;;;;5032950;28;20407;-66
2023/07/13 02:14:18;;;;;;;6.72;4.80;;;23.60;1.00;;;;;;5034345;28;20387;-66
2023/07/13 02:16:44;;;;;;;7.40;4.50;;;23.50;1.00;;;;;;5033536;28;20429;-66
2023/07/13 02:19:10;;;;;;;4.97;4.35;;;23.50;1.00;;;;;;5034836;28;20041;-66
2023/07/13 02:21:35;;;;;;;6.63;4.85;;;23.70;1.00;;;;;;5033362;28;20483;-67
2023/07/13 02:24:01;;;;;;;7.80;4.93;;;23.60;1.00;;;;;;5032545;28;20040;-66
2023/07/13 02:26:27;;;;;;;4.55;3.95;;;23.70;1.00;;;;;;5032923;28;20038;-67
2023/07/13 02:28:53;;;;;;;5.65;3.70;;;23.80;1.00;;;;;;5034097;28;20108;-67
2023/07/13 02:31:19;;;;;;;5.35;3.80;;;23.80;1.00;;;;;;5033665;28;20506;-68
2023/07/13 02:33:45;;;;;;;5.80;4.00;;;23.90;1.00;;;;;;5029480;28;20587;-67
2023/07/13 02:36:11;;;;;;;7.63;4.47;;;23.70;1.00;;;;;;5030754;28;20025;-66
2023/07/13 02:38:37;;;;;;;4.70;4.10;;;23.80;1.00;;;;;;5032976;28;20060;-67
2023/07/13 02:41:05;;;;;;;5.30;4.43;;;23.80;1.00;;;;;;5026190;28;20435;-67
2023/07/13 02:43:30;;;;;;;7.40;4.20;;;23.90;1.00;;;;;;5031568;28;20079;-67
2023/07/13 02:45:56;;;;;;;6.57;4.20;;;23.90;1.00;;;;;;5030674;28;20026;-67
2023/07/13 02:48:22;;;;;;;5.68;3.95;;;23.90;1.00;;;;;;5034152;28;20508;-66
2023/07/13 02:50:47;;;;;;;4.22;3.75;;;23.80;1.00;;;;;;5033129;28;20072;-66
2023/07/13 02:53:13;;;;;;;4.00;3.58;;;23.90;1.00;;;;;;5030532;28;20043;-67
2023/07/13 02:55:40;;;;;;;5.93;3.90;;;23.80;1.00;;;;;;5033006;28;20042;-67
2023/07/13 02:58:06;;;;;;;4.53;3.42;;;23.70;1.00;;;;;;5032438;28;20121;-66
2023/07/13 03:00:32;;;;;;;5.50;3.60;;;23.70;1.00;;;;;;5034027;28;20034;-67
2023/07/13 03:02:58;;;;;;;4.72;3.70;;;23.60;1.00;;;;;;5025933;28;20450;-67
2023/07/13 03:05:24;;;;;;;7.25;3.38;;;23.70;1.00;;;;;;5033955;28;20044;-67
2023/07/13 03:07:50;;;;;;;3.80;2.95;;;23.60;1.00;;;;;;5026505;28;20017;-67
2023/07/13 03:10:16;;;;;;;4.18;3.30;;;23.70;1.00;;;;;;5032425;28;20509;-67
2023/07/13 03:12:42;;;;;;;4.40;3.55;;;23.70;1.00;;;;;;5033050;28;20497;-67
2023/07/13 03:15:08;;;;;;;6.38;3.67;;;23.80;1.00;;;;;;5032621;28;20032;-67
2023/07/13 03:17:33;;;;;;;5.97;3.00;;;23.80;1.00;;;;;;5032734;28;20025;-66
2023/07/13 03:19:59;;;;;;;5.55;3.15;;;23.80;1.00;;;;;;5032469;28;20025;-66
2023/07/13 03:22:25;;;;;;;4.90;3.10;;;23.80;1.00;;;;;;5030194;28;20085;-66
2023/07/13 03:24:50;;;;;;;4.03;3.10;;;23.80;1.00;;;;;;5028009;28;20052;-67
2023/07/13 03:27:17;;;;;;;7.70;3.50;;;23.70;1.00;;;;;;5033494;28;20052;-67
2023/07/13 03:29:44;;;;;;;6.07;3.20;;;23.70;1.00;;;;;;5033044;28;20025;-66
2023/07/13 03:32:10;;;;;;;7.25;3.25;;;24.00;1.00;;;;;;5032603;28;20029;-66
2023/07/13 03:34:35;;;;;;;4.70;3.25;;;24.00;1.00;;;;;;5030588;28;20034;-66
2023/07/13 03:37:01;;;;;;;3.10;2.70;;;23.90;1.00;;;;;;5025675;28;20033;-66
2023/07/13 03:39:27;;;;;;;5.18;3.53;;;24.00;1.00;;;;;;5022329;28;20486;-66
2023/07/13 03:41:53;;;;;;;3.88;3.58;;;23.90;1.00;;;;;;5022854;28;20025;-66
2023/07/13 03:44:19;;;;;;;5.50;3.63;;;23.90;1.00;;;;;;5032234;28;20042;-67
2023/07/13 03:46:45;;;;;;;6.03;3.60;;;24.10;1.00;;;;;;5030822;28;20090;-67
2023/07/13 03:49:11;;;;;;;5.05;3.55;;;24.10;1.00;;;;;;5033024;28;20033;-67
2023/07/13 03:51:37;;;;;;;7.57;3.50;;;24.20;1.00;;;;;;5032289;28;20026;-67
2023/07/13 03:54:03;;;;;;;6.50;3.22;;;24.10;1.00;;;;;;5028113;28;20413;-67
2023/07/13 03:56:30;;;;;;;6.20;3.40;;;24.00;1.00;;;;;;5030715;28;20028;-67
2023/07/13 03:58:57;;;;;;;3.60;3.20;;;24.00;1.00;;;;;;5032875;28;20403;-67
2023/07/13 04:01:24;;;;;;;7.97;3.75;;;24.10;1.00;;;;;;5030842;28;20040;-67
2023/07/13 04:03:50;;;;;;;4.90;4.07;;;24.00;1.00;;;;;;5032321;28;20029;-67
2023/07/13 04:06:23;;;;;;;4.38;3.47;;;24.20;1.00;;;;;;5030416;28;20041;-67
2023/07/13 04:08:51;;;;;;;4.78;3.53;;;24.20;1.00;;;;;;5031301;28;20037;-67
2023/07/13 04:11:18;;;;;;;4.95;3.63;;;24.30;1.00;;;;;;5030755;28;20060;-66
2023/07/13 04:13:45;;;;;;;4.30;3.53;;;24.30;1.00;;;;;;5031598;28;20112;-66
2023/07/13 04:16:10;;;;;;;3.80;3.50;;;24.30;1.00;;;;;;5031240;28;20393;-66
2023/07/13 04:18:36;;;;;;;5.07;3.60;;;24.30;1.00;;;;;;5024110;28;20091;-66
2023/07/13 04:21:02;;;;;;;5.05;3.90;;;24.40;1.00;;;;;;5031753;28;20021;-66
2023/07/13 04:23:27;;;;;;;5.50;4.63;;;24.40;1.00;;;;;;5031064;28;20047;-66
2023/07/13 04:25:53;;;;;;;10.85;4.90;;;24.30;1.00;;;;;;5032480;28;20082;-67
2023/07/13 04:28:26;;;;;;;7.88;5.50;;;24.40;1.00;;;;;;5020929;28;20029;-66
2023/07/13 04:30:53;;;;;;;6.93;5.22;;;24.40;1.00;;;;;;5027104;28;20041;-67
2023/07/13 04:33:22;;;;;;;6.85;5.53;;;24.50;1.00;;;;;;5031251;28;20475;-66
2023/07/13 04:35:49;;;;;;;8.82;5.28;;;24.50;1.00;;;;;;5030754;28;20467;-66
2023/07/13 04:38:15;;;;;;;7.93;4.93;;;24.50;1.00;;;;;;5028393;28;21393;-67
2023/07/13 04:40:45;;;;;;;5.63;4.93;;;24.50;1.00;;;;;;5031651;28;20444;-67
2023/07/13 04:43:10;;;;;;;7.93;4.90;;;24.50;1.00;;;;;;5031117;28;20530;-67
2023/07/13 04:45:36;;;;;;;6.40;5.20;;;24.40;1.00;;;;;;5031096;28;20116;-67
2023/07/13 04:48:02;;;;;;;6.35;4.90;;;24.50;1.00;;;;;;5031525;28;20116;-67
2023/07/13 04:50:28;;;;;;;5.53;4.88;;;24.50;1.00;;;;;;5031025;28;20176;-67
2023/07/13 04:52:54;;;;;;;7.47;4.18;;;24.50;1.00;;;;;;5029353;28;20030;-67
2023/07/13 04:55:20;;;;;;;6.78;4.70;;;24.50;1.00;;;;;;5027781;28;20394;-67
2023/07/13 04:57:46;;;;;;;9.50;4.85;;;24.60;1.00;;;;;;5029358;28;20509;-67
2023/07/13 05:00:15;;;;;;;6.63;4.65;;;24.60;1.00;;;;;;5032368;28;20039;-67
2023/07/13 05:02:43;;;;;;;5.82;4.35;;;24.70;1.00;;;;;;5030164;28;20022;-67
2023/07/13 05:05:09;;;;;;;5.90;4.55;;;24.80;1.00;;;;;;5034235;28;20124;-67
2023/07/13 05:07:34;;;;;;;6.85;4.53;;;24.80;1.00;;;;;;5034484;28;20112;-67
2023/07/13 05:10:00;;;;;;;6.15;4.63;;;24.90;1.00;;;;;;5029482;28;20025;-67
2023/07/13 05:12:27;;;;;;;5.75;4.35;;;24.90;1.00;;;;;;5035609;28;20112;-67
2023/07/13 05:14:52;;;;;;;7.15;4.72;;;24.90;1.00;;;;;;5034838;28;20017;-67
2023/07/13 05:17:18;;;;;;;7.63;5.03;;;24.90;1.00;;;;;;5035812;28;20087;-67
2023/07/13 05:19:44;;;;;;;8.02;5.05;;;24.90;1.00;;;;;;5029426;28;20433;-67
2023/07/13 05:22:09;;;;;;;9.00;5.00;;;24.80;1.00;;;;;;5032687;28;20026;-66
2023/07/13 05:24:35;;;;;;;6.22;4.57;;;24.70;1.00;;;;;;5034632;28;20048;-66
2023/07/13 05:27:01;;;;;;;8.50;5.05;;;24.80;1.00;;;;;;5028417;28;20069;-66
2023/07/13 05:29:27;;;;;;;5.97;5.18;;;24.80;1.00;;;;;;5025999;28;20402;-66
2023/07/13 05:31:53;;;;;;;7.50;5.80;;;24.90;1.00;;;;;;5034444;28;20075;-66
2023/07/13 05:34:19;;;;;;;8.70;5.40;;;24.80;1.00;;;;;;5034573;28;20029;-66
2023/07/13 05:36:45;;;;;;;6.85;5.45;;;24.80;1.00;;;;;;5031366;28;20044;-66
2023/07/13 05:39:11;;;;;;;7.10;5.57;;;24.80;1.00;;;;;;5034656;28;20029;-66
2023/07/13 05:41:37;;;;;;;6.20;5.38;;;24.90;1.00;;;;;;5030514;28;20054;-66
2023/07/13 05:44:03;;;;;;;8.73;5.78;;;25.20;1.00;;;;;;5035133;28;20513;-66
2023/07/13 05:46:28;;;;;;;8.27;6.15;;;25.00;1.00;;;;;;5032588;28;20037;-66
2023/07/13 05:48:54;;;;;;;7.88;5.47;;;25.20;1.00;;;;;;5034820;28;20380;-66
2023/07/13 05:51:19;;;;;;;8.05;5.22;;;25.10;1.00;;;;;;5034382;28;20040;-66
2023/07/13 05:53:45;;;;;;;8.05;6.20;;;25.20;1.00;;;;;;5032618;28;20386;-66
2023/07/13 05:56:11;;;;;;;8.43;6.15;;;25.10;1.00;;;;;;5032306;28;20040;-66
2023/07/13 05:58:37;;;;;;;8.05;5.63;;;24.90;1.00;;;;;;5030612;28;20457;-66
2023/07/13 06:01:11;;;;;;;7.47;6.05;;;24.90;1.00;;;;;;5034833;28;20030;-66
2023/07/13 06:03:40;;;;;;;7.55;5.18;;;25.00;1.00;;;;;;5033851;28;20394;-66
2023/07/13 06:06:08;;;;;;;6.13;4.20;;;25.00;1.00;;;;;;5033589;28;20041;-66
2023/07/13 06:08:34;;;;;;;5.20;3.95;;;25.20;1.00;;;;;;5030884;28;20097;-66
2023/07/13 06:11:13;;;;;;;5.65;4.07;;;25.20;1.00;;;;;;5030776;28;20109;-66
2023/07/13 06:13:39;;;;;;;5.38;3.78;;;25.40;1.00;;;;;;5035082;28;20382;-67
2023/07/13 06:16:05;;;;;;;4.78;2.95;;;25.40;1.00;;;;;;5032015;28;20624;-66
2023/07/13 06:18:33;;;;;;;3.92;2.58;;;25.40;1.00;;;;;;5033566;28;20057;-67
2023/07/13 06:20:59;;;;;;;4.25;2.47;;;25.40;1.00;;;;;;5032727;28;20448;-66
2023/07/13 06:23:25;;;;;;;3.38;2.33;;;25.40;1.00;;;;;;5031857;28;20064;-66
2023/07/13 06:25:51;;;;;;;3.47;2.35;;;25.40;1.00;;;;;;5032781;28;20045;-66
2023/07/13 06:28:17;;;;;;;3.08;1.95;;;25.50;1.00;;;;;;5032958;28;20025;-66
2023/07/13 06:30:42;;;;;;;5.05;2.42;;;25.50;1.00;;;;;;5030162;28;20053;-66
2023/07/13 06:33:08;;;;;;;5.80;2.67;;;25.50;1.00;;;;;;5034209;28;20070;-66
2023/07/13 06:35:33;;;;;;;3.00;2.22;;;25.60;1.00;;;;;;5030982;28;20394;-66
2023/07/13 06:38:00;;;;;;;2.67;1.73;;;25.60;1.00;;;;;;5031916;28;20036;-66
2023/07/13 06:40:25;;;;;;;3.00;2.30;;;25.40;1.00;;;;;;5032723;28;20131;-66
2023/07/13 06:42:51;;;;;;;9.35;3.20;;;25.40;1.00;;;;;;5029050;28;20467;-66
2023/07/13 06:45:17;;;;;;;3.97;2.67;;;25.40;1.00;;;;;;5033718;28;20134;-66
2023/07/13 06:47:42;;;;;;;4.18;2.28;;;25.50;1.00;;;;;;5029679;28;20017;-66
2023/07/13 06:50:09;;;;;;;2.58;2.35;;;25.50;1.00;;;;;;5032606;28;20175;-66
2023/07/13 06:52:34;;;;;;;6.70;3.20;;;25.50;1.00;;;;;;5032257;28;20017;-66
2023/07/13 06:55:01;;;;;;;5.55;2.97;;;25.60;1.00;;;;;;5032223;28;20033;-66
2023/07/13 06:57:27;;;;;;;6.00;2.90;;;25.60;1.00;;;;;;5032618;28;20045;-68
2023/07/13 06:59:53;;;;;;;5.68;2.75;;;25.60;1.00;;;;;;5031015;28;20036;-68
2023/07/13 07:02:18;;;;;;;6.97;2.97;;;25.50;1.00;;;;;;5030817;28;20021;-69
2023/07/13 07:04:44;;;;;;;6.22;2.80;;;25.50;1.00;;;;;;5028652;28;20047;-69
2023/07/13 07:07:09;;;;;;;5.47;2.63;;;25.70;1.00;;;;;;5030200;28;20116;-68
2023/07/13 07:09:35;;;;;;;6.13;2.42;;;25.80;1.00;;;;;;5030126;28;20091;-75
2023/07/13 07:12:02;;;;;;;5.30;2.55;;;25.90;1.00;;;;;;5032228;28;20041;-70
2023/07/13 07:14:27;;;;;;;4.72;2.60;;;26.00;1.00;;;;;;5030933;28;20574;-73
2023/07/13 07:16:53;;;;;;;5.20;2.65;;;26.00;1.00;;;;;;5026377;28;20100;-70
2023/07/13 07:19:19;;;;;;;5.07;2.80;;;26.10;1.00;;;;;;5029403;28;20467;-73
2023/07/13 07:21:44;;;;;;;4.60;2.60;;;26.00;1.00;;;;;;5029543;28;20036;-80
2023/07/13 07:24:10;;;;;;;4.93;2.55;;;25.90;1.00;;;;;;5032054;28;20493;-75
2023/07/13 07:26:35;;;;;;;7.68;2.53;;;26.10;1.00;;;;;;5023791;28;20021;-67
2023/07/13 07:29:01;;;;;;;5.57;2.50;;;26.20;1.00;;;;;;5031932;28;20049;-72
2023/07/13 07:31:27;;;;;;;6.20;2.45;;;26.20;1.00;;;;;;5029880;28;20514;-72
2023/07/13 07:33:52;;;;;;;3.70;2.33;;;26.10;1.00;;;;;;5031060;28;20029;-72
2023/07/13 07:36:18;;;;;;;6.15;2.65;;;26.10;1.00;;;;;;5022616;28;20030;-66
2023/07/13 07:38:44;;;;;;;3.50;2.67;;;26.00;1.00;;;;;;5026738;28;20036;-65
2023/07/13 07:41:10;;;;;;;7.60;3.28;;;26.10;1.00;;;;;;5029422;28;20026;-66
2023/07/13 07:43:36;;;;;;;5.32;3.05;;;26.10;1.00;;;;;;5026734;28;20116;-74
2023/07/13 07:46:03;;;;;;;3.58;2.58;;;25.90;1.00;;;;;;5025134;28;20167;-66
2023/07/13 07:48:28;;;;;;;3.00;2.35;;;25.90;1.00;;;;;;5026970;28;20025;-66
2023/07/13 07:50:54;;;;;;;5.70;2.33;;;25.90;1.00;;;;;;5028366;28;20028;-65
2023/07/13 07:53:20;;;;;;;3.58;2.40;;;26.00;1.00;;;;;;5030525;28;20021;-65
2023/07/13 07:55:45;;;;;;;6.00;2.58;;;26.10;1.00;;;;;;5029573;28;20092;-68
2023/07/13 07:58:11;;;;;;;6.22;3.03;;;26.20;1.00;;;;;;5032128;28;20057;-71
2023/07/13 08:00:37;;;;;;;7.25;2.45;;;26.20;1.00;;;;;;5032873;28;20021;-82
2023/07/13 08:03:03;;;;;;;3.47;2.20;;;26.20;1.00;;;;;;5030133;28;20025;-74
2023/07/13 08:05:28;;;;;;;3.83;2.22;;;26.20;1.00;;;;;;5031970;28;20041;-68
2023/07/13 08:07:54;;;;;;;6.70;2.72;;;26.10;1.00;;;;;;5023221;28;20398;-75
2023/07/13 08:10:20;;;;;;;3.78;2.40;;;26.10;1.00;;;;;;5025497;28;20057;-70
2023/07/13 08:12:46;;;;;;;3.80;3.00;;;26.20;1.00;;;;;;5029747;28;20036;-73
2023/07/13 08:15:14;;;;;;;6.72;2.95;;;26.20;1.00;;;;;;5026985;28;20021;-71
2023/07/13 08:17:40;;;;;;;6.63;3.22;;;26.30;1.00;;;;;;5028228;28;20033;-68
2023/07/13 08:20:08;;;;;;;4.80;2.58;;;26.30;1.00;;;;;;5024386;28;20030;-67
2023/07/13 08:22:34;;;;;;;6.97;3.13;;;26.40;1.00;;;;;;5032220;28;20479;-69
2023/07/13 08:25:00;;;;;;;5.47;2.90;;;26.50;1.00;;;;;;5026951;28;20073;-63
2023/07/13 08:27:28;;;;;;;4.13;3.03;;;26.70;1.00;;;;;;5026531;28;20021;-71
2023/07/13 08:29:54;;;;;;;5.32;2.90;;;26.80;1.00;;;;;;5028087;28;20091;-67
2023/07/13 08:32:22;;;;;;;5.70;3.30;;;26.80;1.00;;;;;;5029700;28;20017;-68
2023/07/13 08:34:48;;;;;;;6.65;4.07;;;26.90;1.00;;;;;;5025602;28;20048;-71
2023/07/13 08:37:14;;;;;;;6.45;4.20;;;27.00;1.00;;;;;;5025744;28;20029;-65
2023/07/13 08:39:40;;;;;;;6.88;3.65;;;27.00;1.00;;;;;;5033926;28;20413;-66
2023/07/13 08:42:41;;;;;;;10.55;4.28;;;27.00;1.00;;;;;;5035745;28;20136;-71
2023/07/13 08:45:13;;;;;;;8.27;5.93;;;26.90;1.00;;;;;;5033476;28;20033;-69
2023/07/13 08:47:44;;;;;;;6.22;4.30;;;27.00;1.00;;;;;;5033701;28;20039;-69
2023/07/13 08:50:18;;;;;;;8.70;5.03;;;27.10;1.00;;;;;;5027213;28;20080;-66
2023/07/13 08:52:44;;;;;;;5.75;5.07;;;27.10;1.00;;;;;;5028137;28;20029;-62
2023/07/13 08:55:18;;;;;;;7.22;5.18;;;27.00;1.00;;;;;;5029330;28;20033;-68
2023/07/13 08:57:48;;;;;;;6.82;3.90;;;26.90;1.00;;;;;;5027064;28;20045;-64
2023/07/13 09:00:15;;;;;;;7.20;3.65;;;26.90;1.00;;;;;;5033588;28;20036;-67
2023/07/13 09:02:59;;;;;;;4.05;3.35;;;26.90;1.00;;;;;;5029118;28;20057;-71
2023/07/13 09:05:38;;;;;;;;;;;27.00;1.00;;;;;;5033779;28;20045;-71
2023/07/13 09:08:09;;;;;;;7.05;3.47;;;27.00;1.00;;;;;;5020659;28;19910;-65
2023/07/13 09:10:44;;;;;;;5.57;2.80;;;27.10;1.00;;;;;;5029846;28;20578;-66
2023/07/13 09:13:42;;;;;;;5.75;2.97;;;27.20;1.00;;;;;;5035182;28;20029;-74
2023/07/13 09:16:09;;;;;;;5.22;3.20;;;27.20;1.00;;;;;;5047177;28;20044;-65
2023/07/13 09:18:39;;;;;;;6.03;3.67;;;27.20;1.00;;;;;;5035052;28;20498;-81
2023/07/13 09:21:10;;;;;;;6.03;3.58;;;27.20;1.00;;;;;;5035526;28;20024;-78
2023/07/13 09:23:36;;;;;;;6.75;4.90;;;27.20;1.00;;;;;;5032232;28;20466;-72
2023/07/13 09:26:16;;;;;;;10.77;5.78;;;27.40;1.00;;;;;;5034259;28;20037;-73
2023/07/13 09:28:44;;;;;;;6.88;4.32;;;27.40;1.00;;;;;;5028214;28;20072;-73
2023/07/13 09:31:19;;;;;;;7.43;5.43;;;27.50;1.00;;;;;;5032990;28;20025;-66
2023/07/13 09:33:45;;;;;;;5.45;3.50;;;27.60;1.00;;;;;;5035250;28;20136;-82
2023/07/13 09:36:21;;;;;;;7.38;4.10;;;27.70;1.00;;;;;;5035018;28;20026;-81
2023/07/13 09:38:49;;;;;;;4.70;3.50;;;27.60;1.00;;;;;;5028140;28;20030;-70
2023/07/13 09:41:48;;;;;;;5.93;4.32;;;28.00;1.00;;;;;;5034046;28;20071;-76
2023/07/13 09:44:17;;;;;;;5.82;3.30;;;27.80;1.00;;;;;;5027102;28;20156;-74
2023/07/13 09:47:02;;;;;;;5.95;3.70;;;28.40;1.00;;;;;;5028747;28;20037;-63
2023/07/13 09:49:35;;;;;;;4.60;3.67;;;28.10;1.00;;;;;;5034928;28;20395;-64
2023/07/13 09:52:06;;;;;;;5.38;3.90;;;28.00;1.00;;;;;;5032056;28;20025;-66
2023/07/13 09:54:34;;;;;;;7.65;4.38;;;28.00;1.00;;;;;;5029845;28;20498;-67
2023/07/13 09:57:01;;;;;;;3.85;3.50;;;28.10;1.00;;;;;;5034646;28;20486;-73
2023/07/13 09:59:32;;;;;;;3.75;2.90;;;28.30;1.00;;;;;;5033579;28;20040;-75
2023/07/13 10:01:59;;;;;;;5.65;3.00;;;28.60;1.00;;;;;;5032474;28;20021;-68
2023/07/13 10:04:32;;;;;;;4.68;3.83;;;28.30;1.00;;;;;;5035136;28;20038;-73
2023/07/13 10:07:09;;;;;;;4.22;3.17;;;28.50;1.00;;;;;;5029455;28;20041;-73
2023/07/13 10:09:34;;;;;;;4.57;3.63;;;28.50;1.00;;;;;;5021599;28;20064;-74
2023/07/13 10:12:01;;;;;;;5.80;3.88;;;28.90;1.00;;;;;;5034474;28;20056;-69
2023/07/13 10:14:28;;;;;;;5.65;3.60;;;28.50;1.00;;;;;;5031468;28;20025;-61
2023/07/13 10:17:02;;;;;;;3.20;2.75;;;28.60;1.00;;;;;;5032792;28;20382;-66
2023/07/13 10:19:32;;;;;;;5.13;3.60;;;28.80;1.00;;;;;;5033369;28;20140;-71
2023/07/13 10:22:18;;;;;;;7.72;3.17;;;28.90;1.00;;;;;;5034918;28;20021;-68
2023/07/13 10:24:44;;;;;;;4.20;3.33;;;29.00;1.00;;;;;;5030287;28;20040;-68
2023/07/13 10:27:10;;;;;;;4.68;3.85;;;29.50;1.00;;;;;;5033080;28;20021;-68
2023/07/13 10:29:48;;;;;;;5.75;3.05;;;29.10;1.00;;;;;;5033723;28;20029;-68
2023/07/13 10:32:15;;;;;;;4.00;2.92;;;29.00;1.00;;;;;;5033029;28;20037;-68
2023/07/13 10:34:44;;;;;;;3.33;2.55;;;29.10;1.00;;;;;;5025976;28;20439;-71
2023/07/13 10:37:24;;;;;;;5.00;3.13;;;29.00;1.00;;;;;;5029973;28;20028;-71
2023/07/13 10:39:52;;;;;;;3.15;2.70;;;28.90;1.00;;;;;;5056644;28;20026;-72
2023/07/13 10:42:28;;;;;;;5.50;3.03;;;29.10;1.00;;;;;;5033064;28;20032;-70
2023/07/13 10:44:54;;;;;;;4.38;3.00;;;29.00;1.00;;;;;;5031057;28;20037;-69
2023/07/13 10:47:20;;;;;;;2.35;2.10;;;29.20;1.00;;;;;;5025852;28;20032;-71
2023/07/13 10:49:50;;;;;;;4.22;3.28;;;29.00;1.00;;;;;;5032931;28;20100;-71
2023/07/13 10:52:55;;;;;;;4.82;2.58;;;29.10;1.00;;;;;;5033869;28;20120;-71
2023/07/13 10:55:30;;;;;;;;;;;29.30;1.00;;;;;;5026026;28;20029;-71
2023/07/13 10:58:01;;;;;;;6.30;3.55;;;29.60;1.00;;;;;;5025912;28;19924;-71
2023/07/13 11:00:30;;;;;;;4.65;2.70;;;29.20;1.00;;;;;;5034386;28;20053;-71
2023/07/13 11:03:00;;;;;;;7.22;3.30;;;29.40;1.00;;;;;;5032789;28;20509;-71
2023/07/13 11:05:28;;;;;;;5.68;2.90;;;29.50;1.00;;;;;;5031782;28;20340;-71
2023/07/13 11:08:04;;;;;;;4.70;3.17;;;29.70;1.00;;;;;;5033040;28;20065;-71
2023/07/13 11:10:51;;;;;;;4.95;3.70;;;29.60;1.00;;;;;;5032964;28;20040;-71
2023/07/13 11:13:47;;;;;;;3.78;3.30;;;30.30;1.00;;;;;;5033035;28;20030;-72
2023/07/13 11:16:16;;;;;;;4.88;3.38;;;30.60;1.00;;;;;;5023905;28;20372;-71
2023/07/13 11:18:51;;;;;;;3.35;2.85;;;30.50;1.00;;;;;;5031745;28;20545;-70
2023/07/13 11:21:27;;;;;;;3.75;3.35;;;30.60;1.00;;;;;;5031587;28;20040;-71
2023/07/13 11:24:17;;;;;;;3.55;3.22;;;30.60;1.00;;;;;;5026557;28;20471;-71
2023/07/13 11:26:46;;;;;;;4.75;4.18;;;31.00;1.00;;;;;;5029214;28;20033;-71
2023/07/13 11:29:17;;;;;;;5.57;3.78;;;31.20;1.00;;;;;;5033439;28;20040;-71
2023/07/13 11:31:51;;;;;;;5.03;3.78;;;34.20;99.90;;;;;;5032439;28;20160;-71
2023/07/13 11:34:25;;;;;;;3.92;3.33;;;37.10;99.90;;;;;;5029919;28;20099;-71
2023/07/13 11:36:51;;;;;;;5.50;3.72;;;37.60;99.90;;;;;;5031904;28;20021;-71
2023/07/13 11:39:27;;;;;;;5.47;3.63;;;36.90;99.90;;;;;;5033100;28;20029;-71
2023/07/13 11:41:57;;;;;;;5.10;3.42;;;37.40;99.90;;;;;;5028586;28;20040;-72
2023/07/13 11:44:25;;;;;;;5.03;3.22;;;37.50;99.90;;;;;;5032919;28;20036;-72
2023/07/13 11:46:53;;;;;;;6.07;3.75;;;38.70;99.90;;;;;;5032528;28;20030;-72
2023/07/13 11:49:22;;;;;;;6.65;3.30;;;39.80;99.90;;;;;;5030563;28;20108;-73
2023/07/13 11:51:53;;;;;;;5.22;3.85;;;41.70;99.90;;;;;;5031432;28;20055;-72
2023/07/13 11:54:43;;;;;;;6.05;4.30;;;42.70;99.90;;;;;;5028259;28;20537;-72
2023/07/13 11:57:28;;;;;;;6.70;5.70;;;43.80;99.90;;;;;;5032064;28;20040;-72
2023/07/13 11:59:55;;;;;;;4.45;4.13;;;43.20;99.90;;;;;;5030911;28;20029;-72
2023/07/13 12:02:38;;;;;;;5.47;4.90;;;43.20;99.90;;;;;;5034202;28;20021;-72
2023/07/13 12:05:05;;;;;;;;;;;42.10;99.90;;;;;;5033489;28;20072;-72
2023/07/13 12:07:32;;;;;;;6.10;5.18;;;42.50;99.90;;;;;;5030412;28;19909;-72
2023/07/13 12:10:10;;;;;;;4.20;3.88;;;42.50;99.90;;;;;;5033264;28;20017;-73
2023/07/13 12:12:37;;;;;;;6.57;4.75;;;43.50;99.90;;;;;;5029411;28;20033;-72
2023/07/13 12:15:09;;;;;;;4.93;4.43;;;44.30;99.90;;;;;;5025584;28;20407;-73
2023/07/13 12:17:35;;;;;;;7.97;5.18;;;44.50;99.90;;;;;;5027021;28;20037;-72
2023/07/13 12:20:08;;;;;;;7.43;4.18;;;44.20;99.90;;;;;;5033045;28;20491;-73
2023/07/13 12:22:34;;;;;;;6.70;5.03;;;42.30;99.90;;;;;;5030899;28;20470;-73
2023/07/13 12:25:00;;;;;;;5.50;5.00;;;40.20;99.90;;;;;;5033438;28;20044;-73
2023/07/13 12:27:27;;;;;;;7.60;4.72;;;37.90;99.90;;;;;;5031965;28;20018;-73
2023/07/13 12:30:05;;;;;;;5.03;4.13;;;36.80;99.90;;;;;;5032625;28;20501;-73
2023/07/13 12:32:31;;;;;;;8.45;5.75;;;36.20;99.90;;;;;;5031194;28;20039;-73
2023/07/13 12:35:15;;;;;;;6.45;4.40;;;34.90;99.90;;;;;;5027426;28;20022;-73
2023/07/13 12:37:47;;;;;;;4.65;3.92;;;34.40;99.90;;;;;;5024985;28;20037;-74
2023/07/13 12:40:22;;;;;;;6.45;4.43;;;33.40;99.90;;;;;;5024558;28;20041;-80
2023/07/13 12:42:51;;;;;;;5.60;4.20;;;33.00;99.90;;;;;;5029859;28;20044;-63
2023/07/13 12:45:19;;;;;;;7.53;5.07;;;32.50;99.90;;;;;;5032343;28;20045;-67
2023/07/13 12:47:49;;;;;;;4.85;4.10;;;32.00;99.90;;;;;;5034924;28;20034;-62
2023/07/13 12:50:20;;;;;;;8.05;4.40;;;32.70;99.90;;;;;;5030473;28;20029;-68
2023/07/13 12:52:54;;;;;;;6.45;4.25;;;32.60;99.90;;;;;;5029747;28;20556;-67
2023/07/13 12:55:21;;;;;;;6.70;4.45;;;32.40;99.90;;;;;;5029498;28;20045;-65
2023/07/13 12:57:58;;;;;;;5.28;4.78;;;32.40;99.90;;;;;;5028694;28;20071;-65
2023/07/13 13:00:27;;;;;;;9.60;4.90;;;32.40;99.90;;;;;;5023862;28;20052;-66
2023/07/13 13:02:55;;;;;;;6.72;4.40;;;32.70;99.90;;;;;;5032623;28;20045;-64